Time;durP1;ratioP1;P1;durP2;ratioP2;P2;SDS_P1;SDS_P2;PMS_P1;PMS_P2;Temp;Humidity;BMP_temperature;BMP_pressure;BME280_temperature;BME280_humidity;BME280_pressure;Samples;Min_cycle;Max_cycle;Signal;HPM_P1;HPM_P2
2021/06/27 00:00:42;;;;;;;45.20;30.77;;;18.70;99.90;;;;;;4999205;28;25063;-64
2021/06/27 00:03:09;;;;;;;49.50;32.83;;;18.70;99.90;;;;;;5006087;28;25076;-66
2021/06/27 00:05:36;;;;;;;46.22;30.42;;;18.60;99.90;;;;;;5004920;28;25106;-65
2021/06/27 00:08:03;;;;;;;44.85;30.75;;;18.60;99.90;;;;;;5002979;28;25071;-65
2021/06/27 00:10:37;;;;;;;46.72;30.58;;;18.60;99.90;;;;;;5004860;28;25126;-65
2021/06/27 00:13:04;;;;;;;47.58;32.03;;;18.50;99.90;;;;;;5003707;28;25080;-65
2021/06/27 00:15:39;;;;;;;54.45;32.58;;;18.60;99.90;;;;;;5004801;28;25086;-64
2021/06/27 00:18:07;;;;;;;45.05;31.30;;;18.50;99.90;;;;;;5004883;28;25097;-65
2021/06/27 00:20:35;;;;;;;60.30;32.55;;;18.40;99.90;;;;;;4994368;28;25084;-64
2021/06/27 00:23:01;;;;;;;52.28;32.55;;;18.40;99.90;;;;;;5017132;28;25079;-65
2021/06/27 00:25:30;;;;;;;52.38;30.95;;;18.30;99.90;;;;;;5003754;28;25069;-64
2021/06/27 00:27:57;;;;;;;50.22;32.55;;;18.40;99.90;;;;;;5005126;28;25090;-64
2021/06/27 00:30:24;;;;;;;49.63;33.15;;;18.30;99.90;;;;;;5005925;28;25055;-64
2021/06/27 00:32:50;;;;;;;51.15;32.13;;;18.20;99.90;;;;;;5006131;28;25105;-65
2021/06/27 00:35:18;;;;;;;54.03;31.75;;;18.20;99.90;;;;;;5005180;28;25054;-65
2021/06/27 00:37:47;;;;;;;49.10;33.08;;;18.30;99.90;;;;;;5003922;28;25137;-65
2021/06/27 00:40:19;;;;;;;51.22;32.33;;;18.30;99.90;;;;;;5005130;28;25114;-65
2021/06/27 00:42:46;;;;;;;56.47;34.97;;;18.30;99.90;;;;;;5003590;28;25069;-64
2021/06/27 00:45:13;;;;;;;47.72;32.20;;;18.30;99.90;;;;;;5005875;28;25136;-66
2021/06/27 00:47:42;;;;;;;47.35;31.95;;;18.40;99.90;;;;;;5004854;28;25058;-65
2021/06/27 00:50:14;;;;;;;52.13;32.90;;;18.40;99.90;;;;;;5004189;28;25063;-65
2021/06/27 00:52:39;;;;;;;;;;;18.30;99.90;;;;;;5002345;28;25073;-65
2021/06/27 00:55:06;;;;;;;48.30;33.40;;;18.30;99.90;;;;;;5005925;28;25058;-64
2021/06/27 00:57:32;;;;;;;50.05;34.10;;;18.20;99.90;;;;;;5004826;28;25064;-66
2021/06/27 00:59:59;;;;;;;54.47;34.08;;;18.10;99.90;;;;;;4998721;28;25104;-65
2021/06/27 01:02:25;;;;;;;53.70;33.78;;;18.10;99.90;;;;;;5004079;28;25103;-66
2021/06/27 01:04:51;;;;;;;58.60;35.13;;;18.00;99.90;;;;;;5004201;28;25128;-64
2021/06/27 01:07:16;;;;;;;52.45;35.10;;;18.00;99.90;;;;;;5000200;28;25096;-65
2021/06/27 01:09:42;;;;;;;53.13;35.10;;;18.10;99.90;;;;;;5009351;28;25132;-65
2021/06/27 01:12:08;;;;;;;52.55;33.42;;;18.00;99.90;;;;;;5002573;28;25148;-66
2021/06/27 01:14:33;;;;;;;58.67;37.00;;;18.00;99.90;;;;;;4998565;28;25077;-64
2021/06/27 01:16:59;;;;;;;49.58;34.33;;;18.00;99.90;;;;;;5005597;28;25053;-65
2021/06/27 01:19:30;;;;;;;54.35;35.90;;;18.00;99.90;;;;;;5006302;28;25054;-64
2021/06/27 01:21:56;;;;;;;63.92;36.63;;;18.00;99.90;;;;;;5004304;28;25073;-64
2021/06/27 01:24:22;;;;;;;58.63;36.42;;;17.90;99.90;;;;;;5005821;28;25087;-65
2021/06/27 01:26:48;;;;;;;55.28;37.10;;;17.80;99.90;;;;;;5007674;28;25100;-65
2021/06/27 01:29:15;;;;;;;53.97;36.65;;;17.80;99.90;;;;;;5007203;28;25125;-66
2021/06/27 01:31:43;;;;;;;59.00;36.70;;;17.80;99.90;;;;;;5005559;28;25060;-65
2021/06/27 01:34:09;;;;;;;51.70;35.80;;;17.80;99.90;;;;;;5005663;28;25147;-65
2021/06/27 01:36:34;;;;;;;57.95;37.22;;;17.80;99.90;;;;;;5004986;28;25084;-64
2021/06/27 01:39:00;;;;;;;50.05;34.55;;;17.90;99.90;;;;;;5004691;28;25129;-66
2021/06/27 01:41:26;;;;;;;62.47;36.80;;;17.90;99.90;;;;;;5008552;28;25142;-66
2021/06/27 01:43:52;;;;;;;53.35;35.50;;;18.00;99.90;;;;;;5008967;28;25112;-65
2021/06/27 01:46:19;;;;;;;54.58;35.95;;;18.00;99.90;;;;;;5008298;28;25132;-65
2021/06/27 01:48:44;;;;;;;50.25;34.35;;;18.00;99.90;;;;;;5007773;28;25082;-65
2021/06/27 01:51:10;;;;;;;51.33;34.75;;;18.00;99.90;;;;;;5001929;28;25063;-65
2021/06/27 01:53:38;;;;;;;56.90;35.63;;;18.00;99.90;;;;;;5008926;28;25067;-65
2021/06/27 01:56:05;;;;;;;48.47;33.90;;;17.90;99.90;;;;;;5008573;28;25068;-65
2021/06/27 01:58:37;;;;;;;57.88;34.10;;;18.00;99.90;;;;;;5005960;28;25075;-64
2021/06/27 02:01:05;;;;;;;58.22;35.58;;;18.00;99.90;;;;;;5001342;28;25095;-64
2021/06/27 02:03:30;;;;;;;52.97;34.90;;;18.00;99.90;;;;;;5008497;28;25178;-66
2021/06/27 02:05:56;;;;;;;51.70;35.63;;;18.00;99.90;;;;;;5005355;28;25096;-65
2021/06/27 02:08:21;;;;;;;53.33;36.90;;;18.00;99.90;;;;;;5005482;28;25148;-65
2021/06/27 02:10:47;;;;;;;50.40;35.53;;;18.00;99.90;;;;;;5008817;28;25112;-65
2021/06/27 02:13:12;;;;;;;53.03;36.58;;;18.10;99.90;;;;;;5006981;28;25086;-65
2021/06/27 02:15:38;;;;;;;55.40;36.38;;;18.00;99.90;;;;;;5004849;28;25060;-65
2021/06/27 02:18:10;;;;;;;56.17;37.38;;;18.00;99.90;;;;;;5007295;28;25071;-64
2021/06/27 02:20:36;;;;;;;54.72;36.63;;;18.00;99.90;;;;;;5000309;28;25084;-65
2021/06/27 02:23:01;;;;;;;51.45;35.92;;;18.00;99.90;;;;;;5011073;28;25087;-65
2021/06/27 02:25:27;;;;;;;52.78;37.10;;;18.00;99.90;;;;;;5009080;28;25082;-64
2021/06/27 02:27:54;;;;;;;54.60;38.15;;;18.00;99.90;;;;;;5004794;28;25135;-65
2021/06/27 02:30:21;;;;;;;53.05;37.17;;;18.00;99.90;;;;;;5006995;28;25058;-66
2021/06/27 02:32:46;;;;;;;50.70;36.70;;;18.00;99.90;;;;;;5006483;28;25066;-66
2021/06/27 02:35:13;;;;;;;57.70;37.40;;;18.00;99.90;;;;;;5004892;28;25077;-66
2021/06/27 02:37:40;;;;;;;55.58;36.60;;;18.00;99.90;;;;;;5003754;28;25077;-66
2021/06/27 02:40:08;;;;;;;54.78;37.20;;;17.90;99.90;;;;;;5005079;28;25102;-64
2021/06/27 02:42:33;;;;;;;54.88;39.47;;;17.90;99.90;;;;;;5007467;28;25060;-66
2021/06/27 02:44:59;;;;;;;59.05;38.45;;;18.00;99.90;;;;;;5008684;28;25128;-65
2021/06/27 02:47:25;;;;;;;55.92;37.88;;;17.90;99.90;;;;;;5007637;28;25065;-67
2021/06/27 02:49:50;;;;;;;54.05;35.92;;;17.90;99.90;;;;;;5006605;28;25105;-65
2021/06/27 02:52:17;;;;;;;53.95;37.58;;;17.90;99.90;;;;;;5007140;28;25063;-65
2021/06/27 02:54:42;;;;;;;57.17;34.17;;;18.00;99.90;;;;;;5009410;28;25059;-65
2021/06/27 02:57:08;;;;;;;56.03;38.00;;;18.00;99.90;;;;;;5007061;28;25082;-65
2021/06/27 02:59:33;;;;;;;49.55;35.35;;;18.00;99.90;;;;;;5006618;28;25075;-65
2021/06/27 03:01:59;;;;;;;52.05;35.92;;;17.80;99.90;;;;;;5005581;28;25079;-64
2021/06/27 03:04:24;;;;;;;55.78;36.50;;;17.90;99.90;;;;;;4999864;28;25072;-65
2021/06/27 03:06:50;;;;;;;49.90;35.55;;;18.00;99.90;;;;;;5003876;28;25108;-65
2021/06/27 03:09:15;;;;;;;55.15;38.10;;;17.90;99.90;;;;;;5009103;28;25141;-66
2021/06/27 03:11:41;;;;;;;55.58;37.47;;;17.80;99.90;;;;;;5009477;28;25121;-65
2021/06/27 03:14:06;;;;;;;50.85;34.97;;;17.80;99.90;;;;;;5009648;28;25068;-65
2021/06/27 03:16:32;;;;;;;58.63;38.83;;;17.90;99.90;;;;;;5004615;28;25126;-65
2021/06/27 03:18:58;;;;;;;57.25;40.38;;;17.90;99.90;;;;;;5007130;28;25067;-65
2021/06/27 03:21:23;;;;;;;58.90;39.33;;;17.70;99.90;;;;;;5019557;22;25080;-63
2021/06/27 03:23:49;;;;;;;58.63;38.30;;;17.60;99.90;;;;;;4989517;28;25144;-64
2021/06/27 03:26:14;;;;;;;60.33;37.22;;;17.50;99.90;;;;;;4981860;28;25070;-63
2021/06/27 03:28:43;;;;;;;60.20;37.72;;;17.50;99.90;;;;;;4987206;28;25076;-64
2021/06/27 03:31:08;;;;;;;55.38;38.42;;;17.50;99.90;;;;;;4994229;28;25049;-63
2021/06/27 03:33:35;;;;;;;57.90;37.38;;;17.50;99.90;;;;;;4987867;28;25181;-64
2021/06/27 03:36:00;;;;;;;56.80;38.00;;;17.60;99.90;;;;;;4982979;28;25156;-64
2021/06/27 03:38:35;;;;;;;51.75;36.63;;;17.60;99.90;;;;;;4985814;28;25058;-63
2021/06/27 03:41:01;;;;;;;59.67;39.10;;;17.70;99.90;;;;;;4987387;28;25100;-65
2021/06/27 03:43:26;;;;;;;59.20;39.20;;;17.60;99.90;;;;;;4982996;28;25099;-65
2021/06/27 03:45:52;;;;;;;58.03;39.05;;;17.70;99.90;;;;;;4989240;28;25062;-64
2021/06/27 03:48:17;;;;;;;57.92;38.80;;;17.70;99.90;;;;;;4987206;28;25157;-63
2021/06/27 03:50:43;;;;;;;57.30;37.80;;;17.60;99.90;;;;;;4988010;28;25118;-63
2021/06/27 03:53:14;;;;;;;61.53;38.63;;;17.60;99.90;;;;;;4988867;28;25053;-64
2021/06/27 03:55:40;;;;;;;57.33;37.20;;;17.70;99.90;;;;;;4983008;28;25113;-63
2021/06/27 03:58:06;;;;;;;57.70;39.67;;;17.70;99.90;;;;;;4988938;28;25204;-63
2021/06/27 04:00:31;;;;;;;58.83;37.35;;;17.80;99.90;;;;;;4987960;28;25088;-64
2021/06/27 04:02:57;;;;;;;58.13;37.85;;;17.80;99.90;;;;;;4987628;28;25070;-64
2021/06/27 04:05:22;;;;;;;52.70;34.65;;;17.90;99.90;;;;;;4988816;28;25063;-63
2021/06/27 04:07:48;;;;;;;52.65;34.65;;;17.80;99.90;;;;;;4987834;28;25081;-65
2021/06/27 04:10:13;;;;;;;54.95;35.85;;;17.90;99.90;;;;;;4988629;28;25061;-63
2021/06/27 04:12:39;;;;;;;52.83;36.63;;;18.00;99.90;;;;;;4987619;28;25111;-65
2021/06/27 04:15:06;;;;;;;46.92;33.80;;;18.00;99.90;;;;;;4984654;28;25152;-62
2021/06/27 04:17:32;;;;;;;51.75;35.63;;;18.00;99.90;;;;;;4986939;28;25077;-64
2021/06/27 04:20:00;;;;;;;58.00;36.95;;;18.00;99.90;;;;;;4986995;28;25071;-65
2021/06/27 04:22:26;;;;;;;51.92;35.47;;;18.10;99.90;;;;;;4983358;28;25125;-63
2021/06/27 04:24:52;;;;;;;55.55;37.78;;;18.20;99.90;;;;;;4983992;28;25058;-64
2021/06/27 04:27:17;;;;;;;58.50;37.80;;;18.30;99.90;;;;;;4988274;28;25128;-64
2021/06/27 04:29:44;;;;;;;54.03;35.58;;;18.30;99.90;;;;;;4985487;28;25072;-63
2021/06/27 04:32:09;;;;;;;49.75;35.67;;;18.30;99.90;;;;;;4984126;28;25075;-64
2021/06/27 04:34:35;;;;;;;52.55;36.03;;;18.20;99.90;;;;;;4983426;28;25080;-63
2021/06/27 04:37:00;;;;;;;57.35;38.45;;;18.20;99.90;;;;;;4983515;28;25084;-64
2021/06/27 04:39:26;;;;;;;57.00;37.20;;;18.10;99.90;;;;;;4986546;28;25147;-63
2021/06/27 04:41:52;;;;;;;53.50;36.05;;;18.10;99.90;;;;;;4986816;28;25064;-64
2021/06/27 04:44:18;;;;;;;53.67;36.88;;;18.00;99.90;;;;;;4983691;28;25049;-64
2021/06/27 04:46:44;;;;;;;61.13;37.75;;;18.10;99.90;;;;;;4985067;28;25080;-64
2021/06/27 04:49:12;;;;;;;52.78;34.25;;;18.20;99.90;;;;;;4993204;28;25075;-63
2021/06/27 04:51:38;;;;;;;53.13;36.05;;;18.20;99.90;;;;;;5003716;28;25074;-64
2021/06/27 04:54:04;;;;;;;53.42;37.72;;;18.20;99.90;;;;;;4983228;28;25080;-63
2021/06/27 04:56:29;;;;;;;52.60;36.60;;;18.20;99.90;;;;;;4976906;28;25137;-65
2021/06/27 04:58:55;;;;;;;57.00;38.13;;;18.20;99.90;;;;;;4974370;28;25139;-64
2021/06/27 05:01:20;;;;;;;59.30;37.90;;;18.30;99.90;;;;;;4973209;28;25083;-64
2021/06/27 05:03:46;;;;;;;54.35;38.72;;;18.30;99.90;;;;;;4977182;28;25113;-64
2021/06/27 05:06:12;;;;;;;54.33;39.10;;;18.20;99.90;;;;;;4996101;28;25073;-64
2021/06/27 05:08:37;;;;;;;60.30;38.92;;;18.20;99.90;;;;;;5002036;28;25063;-65
2021/06/27 05:11:03;;;;;;;52.30;36.88;;;18.30;99.90;;;;;;5003781;28;25091;-64
2021/06/27 05:13:29;;;;;;;55.53;37.97;;;18.40;99.90;;;;;;4981494;28;25081;-65
2021/06/27 05:15:54;;;;;;;54.42;36.13;;;18.40;99.90;;;;;;4973525;28;25075;-64
2021/06/27 05:18:20;;;;;;;52.50;37.58;;;18.40;99.90;;;;;;4982651;28;25159;-64
2021/06/27 05:20:47;;;;;;;55.35;38.20;;;18.40;99.90;;;;;;4979637;28;25107;-63
2021/06/27 05:23:13;;;;;;;54.92;36.60;;;18.50;99.90;;;;;;4977186;28;25102;-65
2021/06/27 05:25:39;;;;;;;52.53;36.08;;;18.60;99.90;;;;;;4982008;28;25082;-64
2021/06/27 05:28:04;;;;;;;56.63;36.78;;;18.70;99.90;;;;;;4981354;28;25055;-65
2021/06/27 05:30:30;;;;;;;51.40;35.83;;;18.90;99.90;;;;;;4976308;28;25061;-65
2021/06/27 05:32:56;;;;;;;50.92;35.90;;;18.90;99.90;;;;;;4978941;28;25064;-65
2021/06/27 05:35:21;;;;;;;52.03;36.17;;;18.90;99.90;;;;;;4983135;28;25071;-64
2021/06/27 05:37:47;;;;;;;50.35;35.55;;;19.00;99.90;;;;;;4992777;28;25057;-64
2021/06/27 05:40:13;;;;;;;52.58;37.03;;;19.00;99.90;;;;;;4993433;28;25154;-65
2021/06/27 05:42:39;;;;;;;49.92;34.33;;;19.00;99.90;;;;;;4988575;28;25103;-64
2021/06/27 05:45:06;;;;;;;54.20;37.20;;;19.00;99.90;;;;;;4989831;28;25084;-63
2021/06/27 05:47:32;;;;;;;51.38;36.15;;;18.90;99.90;;;;;;4988757;28;25051;-63
2021/06/27 05:49:58;;;;;;;58.47;37.53;;;18.90;99.90;;;;;;4990633;28;25048;-65
2021/06/27 05:52:24;;;;;;;53.55;35.40;;;18.90;99.90;;;;;;4992702;28;25077;-63
2021/06/27 05:54:50;;;;;;;48.90;35.38;;;18.90;99.90;;;;;;4991510;28;25102;-64
2021/06/27 05:57:16;;;;;;;53.45;35.53;;;18.90;99.90;;;;;;4990303;28;25177;-62
2021/06/27 05:59:41;;;;;;;50.22;35.58;;;18.90;99.90;;;;;;4987979;28;25113;-64
2021/06/27 06:02:07;;;;;;;49.90;34.80;;;18.90;99.90;;;;;;4982886;28;25110;-63
2021/06/27 06:04:33;;;;;;;50.65;35.58;;;19.00;99.90;;;;;;4976971;28;25111;-63
2021/06/27 06:06:59;;;;;;;47.42;33.30;;;19.00;99.90;;;;;;4977694;28;25107;-63
2021/06/27 06:09:24;;;;;;;49.40;34.75;;;19.10;99.90;;;;;;4978112;28;25145;-64
2021/06/27 06:11:50;;;;;;;52.45;35.22;;;19.20;99.90;;;;;;4977338;28;25130;-65
2021/06/27 06:14:15;;;;;;;48.38;33.45;;;19.30;99.90;;;;;;4993088;28;25057;-64
2021/06/27 06:16:45;;;;;;;49.88;34.28;;;19.30;99.90;;;;;;4975462;28;25130;-63
2021/06/27 06:19:11;;;;;;;54.00;34.95;;;19.50;99.90;;;;;;4993751;28;25068;-64
2021/06/27 06:21:36;;;;;;;46.78;32.78;;;19.60;99.90;;;;;;4979493;28;25126;-64
2021/06/27 06:24:02;;;;;;;45.35;32.72;;;19.60;99.90;;;;;;4975154;28;25103;-64
2021/06/27 06:26:28;;;;;;;49.65;30.80;;;19.70;99.90;;;;;;4979219;28;25127;-63
2021/06/27 06:28:54;;;;;;;46.13;31.65;;;19.70;99.90;;;;;;4982944;28;25075;-64
2021/06/27 06:31:19;;;;;;;49.47;32.03;;;19.90;99.90;;;;;;4984023;28;25073;-63
2021/06/27 06:33:45;;;;;;;43.38;30.98;;;19.80;99.90;;;;;;4976683;28;25101;-64
2021/06/27 06:36:10;;;;;;;41.90;31.48;;;19.90;99.90;;;;;;4987733;28;25054;-63
2021/06/27 06:38:36;;;;;;;42.80;30.45;;;19.80;99.90;;;;;;4984843;28;25067;-63
2021/06/27 06:41:02;;;;;;;44.53;29.63;;;19.80;99.90;;;;;;4977816;28;25078;-64
2021/06/27 06:43:28;;;;;;;45.95;30.40;;;19.80;99.90;;;;;;4980357;28;25075;-63
2021/06/27 06:45:53;;;;;;;41.05;30.05;;;19.80;99.90;;;;;;4979960;28;25076;-63
2021/06/27 06:48:19;;;;;;;45.75;28.83;;;19.80;99.90;;;;;;4983351;28;25076;-63
2021/06/27 06:50:45;;;;;;;40.85;29.67;;;19.80;99.90;;;;;;4973822;28;25142;-64
2021/06/27 06:53:10;;;;;;;40.40;29.50;;;20.00;99.90;;;;;;4979527;28;25087;-64
2021/06/27 06:55:36;;;;;;;43.58;29.80;;;20.00;99.90;;;;;;4987953;28;25060;-64
2021/06/27 06:58:03;;;;;;;41.67;29.88;;;20.00;99.90;;;;;;4986749;28;25142;-65
2021/06/27 07:00:29;;;;;;;41.58;29.30;;;20.00;99.90;;;;;;4986253;28;25083;-64
2021/06/27 07:02:55;;;;;;;44.40;30.83;;;20.10;99.90;;;;;;4986939;28;25093;-64
2021/06/27 07:05:21;;;;;;;44.08;30.48;;;20.10;99.90;;;;;;4981124;28;25075;-64
2021/06/27 07:07:47;;;;;;;40.47;29.45;;;20.10;99.90;;;;;;4976208;28;25063;-64
2021/06/27 07:10:13;;;;;;;43.17;31.20;;;20.20;99.90;;;;;;4987321;28;25134;-64
2021/06/27 07:12:40;;;;;;;42.10;31.10;;;20.20;99.90;;;;;;4988042;28;25087;-65
2021/06/27 07:15:06;;;;;;;44.60;29.67;;;20.20;99.90;;;;;;4984392;28;25065;-64
2021/06/27 07:17:32;;;;;;;44.47;28.48;;;20.20;99.90;;;;;;4985625;28;25138;-64
2021/06/27 07:19:57;;;;;;;41.30;29.08;;;20.10;99.90;;;;;;4982649;28;25097;-63
2021/06/27 07:22:23;;;;;;;43.22;29.60;;;20.30;99.90;;;;;;4987820;28;25099;-65
2021/06/27 07:24:48;;;;;;;42.88;31.13;;;20.40;99.90;;;;;;4986423;28;25070;-65
2021/06/27 07:27:14;;;;;;;43.97;28.80;;;20.40;99.90;;;;;;4988338;28;25122;-64
2021/06/27 07:29:40;;;;;;;42.10;29.67;;;20.50;99.90;;;;;;4992517;28;25159;-65
2021/06/27 07:32:06;;;;;;;38.78;27.70;;;20.60;99.90;;;;;;4988081;28;25116;-65
2021/06/27 07:34:32;;;;;;;41.20;29.17;;;20.60;99.90;;;;;;4986024;28;25094;-63
2021/06/27 07:36:57;;;;;;;42.25;29.10;;;20.60;99.90;;;;;;4984828;28;25080;-65
2021/06/27 07:39:23;;;;;;;39.72;28.00;;;20.50;99.90;;;;;;4988343;28;25108;-63
2021/06/27 07:41:49;;;;;;;38.35;28.02;;;20.60;99.90;;;;;;4987464;28;25132;-64
2021/06/27 07:44:14;;;;;;;39.97;28.90;;;20.60;99.90;;;;;;4987437;28;25083;-64
2021/06/27 07:46:40;;;;;;;34.55;26.55;;;20.60;99.90;;;;;;4986383;28;25063;-64
2021/06/27 07:49:05;;;;;;;42.83;28.52;;;20.70;99.90;;;;;;4987515;28;25021;-63
2021/06/27 07:51:31;;;;;;;38.85;28.70;;;20.80;99.90;;;;;;4985536;28;25120;-64
2021/06/27 07:53:57;;;;;;;36.90;27.83;;;20.90;99.90;;;;;;4987194;28;25079;-65
2021/06/27 07:56:22;;;;;;;39.17;28.35;;;20.90;99.90;;;;;;4984319;28;25132;-65
2021/06/27 07:58:48;;;;;;;41.67;29.13;;;21.00;99.90;;;;;;4981816;28;25119;-63
2021/06/27 08:01:13;;;;;;;38.67;28.35;;;21.10;99.90;;;;;;4981392;28;25092;-63
2021/06/27 08:03:39;;;;;;;39.28;28.02;;;21.20;99.90;;;;;;4985135;28;25071;-64
2021/06/27 08:06:04;;;;;;;42.10;28.30;;;21.40;99.90;;;;;;4988061;28;25080;-65
2021/06/27 08:08:30;;;;;;;38.85;28.25;;;21.50;99.90;;;;;;4983963;28;25057;-64
2021/06/27 08:10:56;;;;;;;37.30;26.75;;;21.50;99.90;;;;;;4986196;28;25075;-64
2021/06/27 08:13:21;;;;;;;36.10;26.25;;;21.60;99.90;;;;;;4989170;28;25139;-64
2021/06/27 08:15:47;;;;;;;38.78;26.80;;;21.60;99.90;;;;;;4984621;28;25151;-64
2021/06/27 08:18:13;;;;;;;37.92;26.50;;;21.80;99.90;;;;;;4990067;28;25081;-64
2021/06/27 08:20:39;;;;;;;35.13;25.17;;;21.80;99.90;;;;;;4989902;28;25062;-65
2021/06/27 08:23:10;;;;;;;38.05;27.45;;;21.90;99.90;;;;;;4979356;28;25136;-66
2021/06/27 08:25:36;;;;;;;34.25;26.73;;;22.00;99.90;;;;;;4977399;28;25072;-65
2021/06/27 08:28:03;;;;;;;37.20;25.33;;;21.80;99.90;;;;;;4978751;28;25104;-65
2021/06/27 08:30:29;;;;;;;36.00;26.63;;;21.90;99.90;;;;;;4980517;28;25087;-65
2021/06/27 08:32:55;;;;;;;37.58;26.75;;;21.90;99.90;;;;;;4978091;28;25103;-64
2021/06/27 08:35:21;;;;;;;39.90;27.73;;;22.00;99.90;;;;;;4973975;28;25072;-66
2021/06/27 08:37:51;;;;;;;35.05;25.95;;;22.00;99.90;;;;;;4978401;28;25163;-65
2021/06/27 08:40:18;;;;;;;31.30;24.25;;;22.00;99.90;;;;;;4980848;28;25153;-64
2021/06/27 08:42:45;;;;;;;34.65;25.02;;;22.30;99.90;;;;;;4980035;28;25082;-64
2021/06/27 08:45:12;;;;;;;30.98;23.48;;;22.40;99.90;;;;;;4988292;28;25176;-65
2021/06/27 08:47:41;;;;;;;32.10;23.52;;;22.50;99.90;;;;;;4986789;28;25066;-66
2021/06/27 08:50:12;;;;;;;31.92;24.77;;;22.70;99.90;;;;;;4993875;28;25079;-64
2021/06/27 08:52:38;;;;;;;33.40;23.98;;;22.70;99.90;;;;;;5000248;28;25079;-66
2021/06/27 08:55:06;;;;;;;35.25;24.48;;;22.70;99.90;;;;;;4999536;28;25110;-64
2021/06/27 08:57:31;;;;;;;36.92;25.02;;;22.80;99.90;;;;;;5001821;28;25061;-65
2021/06/27 09:00:00;;;;;;;33.33;25.08;;;22.90;99.90;;;;;;5000744;28;25082;-64
2021/06/27 09:02:26;;;;;;;36.75;24.45;;;22.90;99.90;;;;;;4990040;28;25130;-64
2021/06/27 09:04:52;;;;;;;28.98;23.13;;;22.90;99.90;;;;;;4989971;28;25061;-64
2021/06/27 09:07:35;;;;;;;33.55;24.73;;;23.00;99.90;;;;;;4985425;28;25081;-65
2021/06/27 09:10:03;;;;;;;34.55;24.73;;;23.00;99.90;;;;;;4988768;28;25091;-63
2021/06/27 09:12:48;;;;;;;31.85;23.73;;;23.10;99.90;;;;;;4983834;28;25067;-63
2021/06/27 09:15:31;;;;;;;31.58;22.17;;;23.20;99.90;;;;;;4984766;28;25085;-62
2021/06/27 09:18:03;;;;;;;34.63;22.55;;;23.20;99.90;;;;;;4985386;28;25070;-64
2021/06/27 09:20:30;;;;;;;35.05;23.83;;;23.20;99.90;;;;;;4989328;28;25096;-65
2021/06/27 09:22:57;;;;;;;34.33;22.17;;;23.30;99.90;;;;;;5008100;23;25076;-65
2021/06/27 09:25:28;;;;;;;32.00;23.52;;;23.30;99.90;;;;;;5005014;28;25118;-65
2021/06/27 09:28:18;;;;;;;30.30;23.05;;;23.50;99.90;;;;;;5003165;28;25061;-64
2021/06/27 09:30:47;;;;;;;30.08;20.95;;;23.40;99.90;;;;;;5004013;28;25064;-66
2021/06/27 09:33:18;;;;;;;27.60;20.30;;;23.70;99.90;;;;;;4995466;28;25055;-65
2021/06/27 09:35:51;;;;;;;23.90;19.58;;;23.80;99.90;;;;;;5004381;28;25054;-63
2021/06/27 09:38:18;;;;;;;27.65;20.33;;;24.00;99.90;;;;;;5002288;28;25086;-66
2021/06/27 09:40:43;;;;;;;29.70;19.65;;;24.20;99.90;;;;;;4993739;28;25146;-65
2021/06/27 09:43:09;;;;;;;28.20;19.30;;;24.30;99.90;;;;;;4999093;28;25085;-65
2021/06/27 09:45:49;;;;;;;24.17;18.48;;;24.40;99.90;;;;;;5002042;28;24859;-65
2021/06/27 09:48:15;;;;;;;20.42;16.40;;;24.50;99.90;;;;;;5001499;28;25071;-67
2021/06/27 09:50:42;;;;;;;21.75;17.50;;;24.60;99.90;;;;;;4995843;28;25058;-66
2021/06/27 09:53:38;;;;;;;24.35;17.55;;;24.60;99.90;;;;;;4998061;28;25082;-66
2021/06/27 09:56:07;;;;;;;17.88;15.77;;;24.50;99.90;;;;;;5002744;28;25077;-65
2021/06/27 09:58:33;;;;;;;21.10;16.30;;;24.50;99.90;;;;;;5003439;28;25056;-66
2021/06/27 10:00:59;;;;;;;23.95;18.88;;;24.60;99.90;;;;;;5004651;28;25054;-64
2021/06/27 10:03:28;;;;;;;26.10;19.23;;;24.10;99.90;;;;;;5001317;28;25167;-65
2021/06/27 10:06:07;;;;;;;26.40;17.48;;;23.90;99.90;;;;;;5000716;28;25058;-65
2021/06/27 10:08:33;;;;;;;23.05;16.40;;;24.10;99.90;;;;;;4995245;28;25087;-67
2021/06/27 10:11:25;;;;;;;22.30;16.02;;;24.20;99.90;;;;;;5009403;28;25066;-64
2021/06/27 10:13:54;;;;;;;22.92;16.98;;;24.20;99.90;;;;;;5001475;28;25080;-66
2021/06/27 10:16:29;;;;;;;23.15;17.17;;;24.20;99.90;;;;;;5006365;28;25099;-66
2021/06/27 10:18:57;;;;;;;24.45;17.98;;;24.40;99.90;;;;;;5002355;28;25136;-66
2021/06/27 10:21:23;;;;;;;24.88;18.45;;;24.40;99.90;;;;;;5003296;28;25100;-65
2021/06/27 10:23:49;;;;;;;24.20;18.02;;;24.20;99.90;;;;;;4994804;28;25075;-66
2021/06/27 10:26:16;;;;;;;24.77;18.15;;;24.20;99.90;;;;;;4998214;28;25099;-64
2021/06/27 10:28:42;;;;;;;23.20;15.80;;;24.20;99.90;;;;;;5000837;28;25099;-64
2021/06/27 10:31:11;;;;;;;22.13;15.10;;;24.30;99.90;;;;;;5003313;28;25069;-64
2021/06/27 10:33:39;;;;;;;18.52;14.73;;;24.50;99.90;;;;;;5003003;28;25077;-65
2021/06/27 10:36:08;;;;;;;20.35;15.40;;;24.80;99.90;;;;;;5006533;28;25086;-66
2021/06/27 10:38:35;;;;;;;20.27;15.25;;;24.70;99.90;;;;;;5005753;28;25063;-65
2021/06/27 10:41:02;;;;;;;18.30;14.35;;;24.90;99.90;;;;;;5007957;28;25101;-66
2021/06/27 10:43:55;;;;;;;24.05;15.18;;;24.90;99.90;;;;;;5008447;28;25073;-67
2021/06/27 10:46:36;;;;;;;19.88;15.30;;;25.00;99.90;;;;;;5003869;28;25108;-66
2021/06/27 10:49:01;;;;;;;20.42;13.65;;;25.00;99.90;;;;;;5004325;28;25130;-67
2021/06/27 10:52:02;;;;;;;14.27;11.40;;;24.90;99.90;;;;;;5008463;28;25123;-67
2021/06/27 10:54:38;;;;;;;15.02;11.63;;;25.00;99.90;;;;;;5007857;28;25064;-67
2021/06/27 10:57:06;;;;;;;16.65;12.23;;;25.10;99.90;;;;;;5006721;28;25161;-67
2021/06/27 10:59:38;;;;;;;11.30;9.57;;;25.20;99.90;;;;;;5012762;28;25100;-66
2021/06/27 11:02:36;;;;;;;12.30;10.00;;;25.20;99.90;;;;;;5012890;28;25070;-67
2021/06/27 11:05:34;;;;;;;12.65;10.35;;;25.20;99.90;;;;;;4996913;28;25050;-66
2021/06/27 11:08:01;;;;;;;14.07;10.38;;;25.50;99.90;;;;;;5002754;28;25084;-66
2021/06/27 11:10:28;;;;;;;12.32;9.68;;;25.70;99.90;;;;;;5008320;28;25077;-67
2021/06/27 11:13:04;;;;;;;15.00;9.88;;;25.90;99.90;;;;;;5007843;28;25100;-65
2021/06/27 11:15:57;;;;;;;13.02;9.80;;;25.90;99.90;;;;;;5016011;28;25050;-67
2021/06/27 11:18:37;;;;;;;10.70;9.55;;;25.90;99.90;;;;;;5001384;28;25111;-68
2021/06/27 11:21:08;;;;;;;10.25;9.20;;;25.50;99.90;;;;;;5008850;28;25075;-70
2021/06/27 11:23:57;;;;;;;10.70;8.52;;;25.20;99.90;;;;;;5004762;28;25054;-66
2021/06/27 11:26:40;;;;;;;13.32;8.48;;;25.30;99.90;;;;;;5006966;28;25054;-67
2021/06/27 11:29:21;;;;;;;14.18;9.05;;;25.50;99.90;;;;;;5000615;28;25114;-65
2021/06/27 11:31:47;;;;;;;12.13;8.20;;;25.60;99.90;;;;;;5008885;28;25082;-68
2021/06/27 11:34:28;;;;;;;10.30;7.40;;;25.50;99.90;;;;;;5007357;28;25057;-67
2021/06/27 11:36:56;;;;;;;10.23;9.10;;;25.60;99.90;;;;;;5006565;28;25094;-66
2021/06/27 11:39:44;;;;;;;11.10;8.52;;;25.50;99.90;;;;;;5003716;28;25064;-66
2021/06/27 11:42:22;;;;;;;10.30;7.85;;;25.50;99.90;;;;;;5002359;28;25052;-66
2021/06/27 11:45:15;;;;;;;13.35;8.35;;;25.60;99.90;;;;;;5006073;28;25055;-66
2021/06/27 11:47:57;;;;;;;8.07;7.28;;;25.70;99.90;;;;;;4981041;28;25139;-69
2021/06/27 11:50:22;;;;;;;10.88;7.85;;;25.80;99.90;;;;;;5001535;28;25063;-66
2021/06/27 11:52:53;;;;;;;10.15;7.32;;;25.90;99.90;;;;;;5003808;28;25143;-66
2021/06/27 11:55:30;;;;;;;9.82;7.88;;;25.90;99.90;;;;;;5001746;28;25066;-67
2021/06/27 11:57:56;;;;;;;7.90;6.82;;;26.10;99.90;;;;;;4996595;28;25059;-68
2021/06/27 12:00:38;;;;;;;8.27;7.13;;;26.20;99.90;;;;;;4992706;28;25125;-66
2021/06/27 12:03:09;;;;;;;7.40;6.53;;;26.20;99.90;;;;;;4991316;28;25068;-66
2021/06/27 12:05:35;;;;;;;12.35;7.45;;;26.40;99.90;;;;;;4993768;28;25074;-65
2021/06/27 12:08:08;;;;;;;8.07;6.38;;;26.30;99.90;;;;;;5002131;28;25135;-65
2021/06/27 12:10:35;;;;;;;14.85;6.70;;;26.30;99.90;;;;;;4996003;28;25058;-67
2021/06/27 12:13:04;;;;;;;7.00;6.30;;;26.40;99.90;;;;;;5006816;28;25101;-66
2021/06/27 12:15:46;;;;;;;6.30;5.68;;;26.40;99.90;;;;;;5002854;28;25066;-68
2021/06/27 12:18:23;;;;;;;7.55;5.93;;;26.60;99.90;;;;;;4992228;28;25065;-68
2021/06/27 12:20:50;;;;;;;6.78;5.72;;;26.70;99.90;;;;;;5003649;28;25069;-66
2021/06/27 12:23:21;;;;;;;8.55;5.57;;;26.60;99.90;;;;;;4999446;28;25153;-68
2021/06/27 12:25:56;;;;;;;7.80;5.70;;;26.70;99.90;;;;;;4994927;28;25052;-68
2021/06/27 12:28:46;;;;;;;8.50;6.57;;;26.70;99.90;;;;;;4992409;28;25069;-65
2021/06/27 12:31:18;;;;;;;6.80;5.68;;;26.70;99.90;;;;;;5010659;28;25063;-66
2021/06/27 12:33:46;;;;;;;6.95;5.47;;;26.40;99.90;;;;;;5001291;28;25064;-66